Time;durP1;ratioP1;P1;durP2;ratioP2;P2;SDS_P1;SDS_P2;PMS_P1;PMS_P2;Temp;Humidity;BMP_temperature;BMP_pressure;BME280_temperature;BME280_humidity;BME280_pressure;Samples;Min_cycle;Max_cycle;Signal;HPM_P1;HPM_P2
2022/06/14 00:00:53;;;;;;;4.00;1.02;;;13.10;75.60;;;;;;4978666;28;20033;-81
2022/06/14 00:03:30;;;;;;;5.10;1.55;;;13.10;75.60;;;;;;4994753;28;20503;-80
2022/06/14 00:05:58;;;;;;;6.03;1.45;;;13.10;75.80;;;;;;4994635;28;20053;-80
2022/06/14 00:08:25;;;;;;;5.45;1.42;;;13.10;76.00;;;;;;4996174;28;20022;-80
2022/06/14 00:10:53;;;;;;;9.40;1.38;;;13.00;76.10;;;;;;4993991;28;20021;-81
2022/06/14 00:13:19;;;;;;;7.25;1.25;;;13.00;76.20;;;;;;4994183;28;20023;-81
2022/06/14 00:15:47;;;;;;;7.60;1.20;;;13.00;76.60;;;;;;4994476;28;20028;-80
2022/06/14 00:18:15;;;;;;;7.53;1.33;;;13.00;77.00;;;;;;4994299;28;20022;-80
2022/06/14 00:20:43;;;;;;;7.05;1.00;;;13.00;77.10;;;;;;4994282;28;20398;-81
2022/06/14 00:23:09;;;;;;;6.57;1.77;;;12.90;77.30;;;;;;4994243;28;20394;-81
2022/06/14 00:25:41;;;;;;;7.97;1.48;;;12.80;77.40;;;;;;4995417;28;20088;-81
2022/06/14 00:28:08;;;;;;;7.68;1.40;;;12.80;77.50;;;;;;4994388;28;20018;-81
2022/06/14 00:30:35;;;;;;;9.43;1.95;;;12.80;77.70;;;;;;4993997;28;20109;-80
2022/06/14 00:33:01;;;;;;;8.93;1.45;;;12.80;77.90;;;;;;4977858;28;20030;-81
2022/06/14 00:35:27;;;;;;;4.45;0.90;;;12.80;78.10;;;;;;4993897;28;20121;-81
2022/06/14 00:37:53;;;;;;;6.80;1.05;;;12.80;78.40;;;;;;4995190;28;20069;-80
2022/06/14 00:40:22;;;;;;;5.25;1.70;;;12.70;78.60;;;;;;4994111;28;20027;-81
2022/06/14 00:42:48;;;;;;;5.93;1.25;;;12.70;79.10;;;;;;4993932;28;20022;-81
2022/06/14 00:45:17;;;;;;;8.48;1.75;;;12.70;79.10;;;;;;4977686;28;20029;-80
2022/06/14 00:47:48;;;;;;;8.43;1.45;;;12.70;79.40;;;;;;4993489;28;20033;-80
2022/06/14 00:50:22;;;;;;;7.15;1.45;;;12.60;79.50;;;;;;4993659;28;20030;-80
2022/06/14 00:52:53;;;;;;;8.82;1.35;;;12.60;80.40;;;;;;4994859;28;20022;-81
2022/06/14 00:55:24;;;;;;;5.78;1.38;;;12.60;79.80;;;;;;4994958;28;20390;-80
2022/06/14 00:57:52;;;;;;;10.13;1.60;;;12.60;79.90;;;;;;4993400;28;20097;-80
2022/06/14 01:00:22;;;;;;;5.53;1.33;;;12.50;80.10;;;;;;4993644;28;20033;-80
2022/06/14 01:02:54;;;;;;;9.93;1.55;;;12.50;80.30;;;;;;4993508;28;20491;-80
2022/06/14 01:05:29;;;;;;;7.25;1.48;;;12.50;80.50;;;;;;4993391;28;20386;-80
2022/06/14 01:07:58;;;;;;;10.25;1.30;;;12.40;80.60;;;;;;4993468;28;20474;-80
2022/06/14 01:10:28;;;;;;;9.90;2.08;;;12.40;80.80;;;;;;4993496;28;20128;-80
2022/06/14 01:12:58;;;;;;;6.10;1.55;;;12.40;81.00;;;;;;4993135;28;20546;-81
2022/06/14 01:15:28;;;;;;;8.10;1.83;;;12.40;81.40;;;;;;4993146;28;20030;-80
2022/06/14 01:18:01;;;;;;;9.95;2.10;;;12.40;81.50;;;;;;4993370;28;20015;-80
2022/06/14 01:20:27;;;;;;;7.60;1.58;;;12.30;81.60;;;;;;4993343;28;20019;-81
2022/06/14 01:22:54;;;;;;;8.40;2.17;;;12.30;81.70;;;;;;4992872;28;20378;-80
2022/06/14 01:25:21;;;;;;;10.55;2.15;;;12.30;81.90;;;;;;4994527;28;20023;-80
2022/06/14 01:27:47;;;;;;;7.72;1.88;;;12.30;82.20;;;;;;4994478;28;20048;-81
2022/06/14 01:30:17;;;;;;;9.97;1.90;;;12.30;82.40;;;;;;4993769;28;20037;-80
2022/06/14 01:32:47;;;;;;;7.22;1.75;;;12.30;82.80;;;;;;4993015;28;20081;-80
2022/06/14 01:35:18;;;;;;;8.88;1.55;;;12.20;83.00;;;;;;4992974;28;20026;-80
2022/06/14 01:37:48;;;;;;;8.55;1.60;;;12.20;83.20;;;;;;4993849;28;20097;-80
2022/06/14 01:40:13;;;;;;;9.10;2.03;;;12.20;83.30;;;;;;4994188;28;20021;-80
2022/06/14 01:43:06;;;;;;;10.57;1.98;;;12.20;83.50;;;;;;4976850;28;20034;-80
2022/06/14 01:45:45;;;;;;;6.03;1.38;;;12.10;84.10;;;;;;4994283;28;20138;-80
2022/06/14 01:48:29;;;;;;;9.23;2.53;;;12.10;83.70;;;;;;4994251;28;20057;-80
2022/06/14 01:54:14;;;;;;;14.57;1.95;;;12.00;84.10;;;;;;4994465;28;20045;-81
2022/06/14 01:56:54;;;;;;;5.93;1.25;;;12.00;84.10;;;;;;4992913;28;20026;-80
2022/06/14 01:59:24;;;;;;;8.90;2.00;;;12.00;84.30;;;;;;4992975;28;20046;-80
2022/06/14 02:02:22;;;;;;;8.73;2.40;;;12.00;84.40;;;;;;4992875;28;20037;-80
2022/06/14 02:04:59;;;;;;;12.60;1.80;;;12.00;84.70;;;;;;4992756;28;20478;-80
2022/06/14 02:07:52;;;;;;;5.38;1.40;;;11.90;84.70;;;;;;4993936;28;20402;-80
2022/06/14 02:10:33;;;;;;;7.03;1.30;;;11.90;84.70;;;;;;4992739;28;20031;-80
2022/06/14 02:13:03;;;;;;;11.47;2.07;;;12.00;84.80;;;;;;4994170;28;20096;-80
2022/06/14 02:15:49;;;;;;;8.35;1.77;;;11.90;84.90;;;;;;4994106;28;20081;-80
2022/06/14 02:18:40;;;;;;;10.05;2.53;;;11.90;85.80;;;;;;4993758;28;20026;-80
2022/06/14 02:21:14;;;;;;;10.18;1.70;;;11.90;85.20;;;;;;4993848;28;20355;-80
2022/06/14 02:24:17;;;;;;;9.15;1.60;;;11.90;85.20;;;;;;4992524;28;20022;-80
2022/06/14 02:26:57;;;;;;;8.25;1.75;;;11.90;85.30;;;;;;4963054;28;20039;-80
2022/06/14 02:29:31;;;;;;;7.43;2.00;;;11.90;85.30;;;;;;5000442;28;20026;-80
2022/06/14 02:32:04;;;;;;;6.22;1.23;;;11.90;85.40;;;;;;4993738;28;20022;-80
2022/06/14 02:34:37;;;;;;;11.13;1.92;;;11.80;85.50;;;;;;4993913;28;20026;-80
2022/06/14 02:37:20;;;;;;;11.40;2.00;;;11.80;86.30;;;;;;4997858;28;20025;-80
2022/06/14 02:40:09;;;;;;;5.93;1.27;;;11.80;85.90;;;;;;4997426;28;20045;-80
2022/06/14 02:42:56;;;;;;;9.95;2.38;;;11.80;86.10;;;;;;4997294;28;20090;-81
2022/06/14 02:45:26;;;;;;;10.35;2.05;;;11.80;86.90;;;;;;4997322;28;20030;-80
2022/06/14 02:48:04;;;;;;;6.00;1.80;;;11.80;86.40;;;;;;4995957;28;20038;-80
2022/06/14 02:50:47;;;;;;;8.05;1.98;;;11.80;86.60;;;;;;4997430;28;20022;-80
2022/06/14 02:53:22;;;;;;;11.65;1.90;;;11.70;86.80;;;;;;4997609;28;20018;-80
2022/06/14 02:55:52;;;;;;;11.40;1.50;;;11.70;87.00;;;;;;5012325;28;20030;-80
2022/06/14 02:58:27;;;;;;;10.75;1.98;;;11.70;87.10;;;;;;4995809;28;20474;-80
2022/06/14 03:01:10;;;;;;;8.67;1.70;;;11.70;87.20;;;;;;4995953;28;20363;-80
2022/06/14 03:03:49;;;;;;;9.18;1.63;;;11.70;87.30;;;;;;4995801;28;20031;-80
2022/06/14 03:06:26;;;;;;;11.40;1.90;;;11.70;87.40;;;;;;4996959;28;20113;-80
2022/06/14 03:09:13;;;;;;;6.80;1.40;;;11.70;87.60;;;;;;5011885;28;20030;-80
2022/06/14 03:12:01;;;;;;;7.07;1.95;;;11.70;87.80;;;;;;4996845;28;20031;-80
2022/06/14 03:14:39;;;;;;;8.85;1.70;;;11.60;88.00;;;;;;4976135;28;20097;-80
2022/06/14 03:17:29;;;;;;;8.97;1.90;;;11.60;88.10;;;;;;4996587;28;20034;-76
2022/06/14 03:20:09;;;;;;;9.93;2.47;;;11.60;88.60;;;;;;4996543;28;20080;-76
2022/06/14 03:23:24;;;;;;;15.32;2.17;;;11.60;88.70;;;;;;4996519;28;20037;-76
2022/06/14 03:26:00;;;;;;;6.07;1.55;;;11.60;89.20;;;;;;4993220;28;20042;-76
2022/06/14 03:28:44;;;;;;;6.57;2.10;;;11.60;89.20;;;;;;5011827;28;20029;-76
2022/06/14 03:31:37;;;;;;;10.35;2.00;;;11.60;89.50;;;;;;4994991;28;20066;-76
2022/06/14 03:34:17;;;;;;;10.05;1.95;;;11.50;89.70;;;;;;4996258;28;20049;-76
2022/06/14 03:36:43;;;;;;;9.05;1.90;;;11.60;89.80;;;;;;4996104;28;20030;-75
2022/06/14 03:39:25;;;;;;;9.03;2.47;;;11.60;90.00;;;;;;4978723;28;20122;-76
2022/06/14 03:41:53;;;;;;;7.37;2.17;;;11.50;90.10;;;;;;4994972;28;20121;-75
2022/06/14 03:44:22;;;;;;;5.45;1.60;;;11.50;90.30;;;;;;4995902;28;20498;-76
2022/06/14 03:47:07;;;;;;;10.38;2.38;;;11.50;90.50;;;;;;4994482;28;20113;-76
2022/06/14 03:49:32;;;;;;;8.77;2.08;;;11.60;90.70;;;;;;4996079;28;20455;-76
2022/06/14 03:52:00;;;;;;;6.60;1.87;;;11.50;90.80;;;;;;4978848;28;20073;-75
2022/06/14 03:54:47;;;;;;;8.10;1.83;;;11.50;90.90;;;;;;4995092;28;20072;-75
2022/06/14 03:57:32;;;;;;;10.35;2.10;;;11.50;91.00;;;;;;4996012;28;20158;-75
2022/06/14 04:00:07;;;;;;;8.15;1.80;;;11.50;91.10;;;;;;4996196;28;20026;-75
2022/06/14 04:02:54;;;;;;;12.10;2.40;;;11.50;91.20;;;;;;4995695;28;20110;-75
2022/06/14 04:05:29;;;;;;;8.23;2.57;;;11.50;91.30;;;;;;4994513;28;20027;-75
2022/06/14 04:08:23;;;;;;;10.80;2.00;;;11.50;91.40;;;;;;4995647;28;20478;-80
2022/06/14 04:11:14;;;;;;;7.10;1.97;;;11.50;91.90;;;;;;4995591;28;20501;-80
2022/06/14 04:13:52;;;;;;;9.03;2.00;;;11.40;91.70;;;;;;4995636;28;20053;-80
2022/06/14 04:16:21;;;;;;;12.20;2.40;;;11.50;91.70;;;;;;4994329;28;20036;-80
2022/06/14 04:18:52;;;;;;;9.93;2.38;;;11.40;91.70;;;;;;4994214;28;20386;-80
2022/06/14 04:21:36;;;;;;;12.30;2.73;;;11.40;91.80;;;;;;4995447;28;20494;-80
2022/06/14 04:24:04;;;;;;;6.82;2.05;;;11.40;91.90;;;;;;4995511;28;20034;-80
2022/06/14 04:26:48;;;;;;;9.73;2.37;;;11.50;92.00;;;;;;4994496;28;20096;-80
2022/06/14 04:29:44;;;;;;;7.53;2.67;;;11.50;92.00;;;;;;5010547;28;20176;-80
2022/06/14 04:32:27;;;;;;;7.30;2.50;;;11.50;92.00;;;;;;5001268;28;20018;-80
2022/06/14 04:35:14;;;;;;;8.70;1.83;;;11.50;92.00;;;;;;5023255;28;20025;-80
2022/06/14 04:37:55;;;;;;;8.57;2.50;;;11.50;92.10;;;;;;5014218;28;20022;-80
2022/06/14 04:40:29;;;;;;;8.60;2.37;;;11.50;92.20;;;;;;5004673;28;20085;-76
2022/06/14 04:43:06;;;;;;;6.32;2.58;;;11.50;92.30;;;;;;5010232;28;20105;-76
2022/06/14 04:45:45;;;;;;;7.80;2.00;;;11.50;92.30;;;;;;4993505;28;20026;-76
2022/06/14 04:48:38;;;;;;;7.77;2.43;;;11.60;92.40;;;;;;4993277;28;20544;-76
2022/06/14 04:51:26;;;;;;;9.17;2.67;;;11.60;92.40;;;;;;4994507;28;20022;-76
2022/06/14 04:54:01;;;;;;;6.63;2.10;;;11.60;92.40;;;;;;5006915;28;20026;-76
2022/06/14 04:56:41;;;;;;;9.93;2.80;;;11.60;92.50;;;;;;5014310;28;20022;-76
2022/06/14 04:59:19;;;;;;;7.80;2.73;;;11.70;92.50;;;;;;5011351;28;20511;-76
2022/06/14 05:01:56;;;;;;;10.38;2.30;;;11.70;92.60;;;;;;5014440;28;20053;-75
2022/06/14 05:04:34;;;;;;;7.43;2.80;;;11.70;92.60;;;;;;5013057;28;20126;-76
2022/06/14 05:07:14;;;;;;;12.77;2.83;;;11.80;92.70;;;;;;5029211;28;20030;-76
2022/06/14 05:09:50;;;;;;;8.40;2.25;;;11.80;92.70;;;;;;5029263;28;20537;-76
2022/06/14 05:12:18;;;;;;;8.02;2.33;;;11.90;92.80;;;;;;5029412;28;20121;-76
2022/06/14 05:15:02;;;;;;;9.80;3.47;;;11.90;92.80;;;;;;5012778;28;20084;-76
2022/06/14 05:17:52;;;;;;;11.77;2.70;;;12.00;92.90;;;;;;5014538;28;20021;-75
2022/06/14 05:20:32;;;;;;;8.13;2.10;;;12.00;92.90;;;;;;5029920;28;20058;-76
2022/06/14 05:23:21;;;;;;;10.93;2.35;;;12.00;92.90;;;;;;5014187;28;20034;-76
2022/06/14 05:26:19;;;;;;;9.95;2.58;;;12.10;92.90;;;;;;5014186;28;20045;-76
2022/06/14 05:29:00;;;;;;;8.15;2.45;;;12.20;92.90;;;;;;5009319;28;20033;-76
2022/06/14 05:31:43;;;;;;;7.53;1.98;;;12.20;92.80;;;;;;5007241;28;20105;-76
2022/06/14 05:34:25;;;;;;;9.73;2.20;;;12.30;92.80;;;;;;5005844;28;20413;-81
2022/06/14 05:37:16;;;;;;;11.98;3.05;;;12.30;92.80;;;;;;4994203;28;20026;-81
2022/06/14 05:39:54;;;;;;;10.07;2.47;;;12.40;92.80;;;;;;5004054;28;20080;-81
2022/06/14 05:42:22;;;;;;;9.80;2.33;;;12.40;92.80;;;;;;5012412;28;20045;-81
2022/06/14 05:44:54;;;;;;;9.38;2.33;;;12.40;92.70;;;;;;5013804;28;20436;-80
2022/06/14 05:47:44;;;;;;;8.60;2.05;;;12.50;92.80;;;;;;5012396;28;20026;-81
2022/06/14 05:50:15;;;;;;;7.45;1.98;;;12.60;92.80;;;;;;5010074;28;20022;-80
2022/06/14 05:52:51;;;;;;;8.88;1.35;;;12.60;92.70;;;;;;4992843;28;20050;-80
2022/06/14 05:55:27;;;;;;;6.80;1.88;;;12.70;92.70;;;;;;4992200;28;20030;-80
2022/06/14 05:58:03;;;;;;;9.13;1.80;;;12.70;92.50;;;;;;4996912;28;20073;-80
2022/06/14 06:00:40;;;;;;;6.57;1.38;;;12.70;92.50;;;;;;4994039;28;20101;-81
2022/06/14 06:03:13;;;;;;;5.22;0.85;;;12.80;92.40;;;;;;4998400;28;20486;-81
2022/06/14 06:05:47;;;;;;;7.50;1.80;;;12.80;92.30;;;;;;4993974;28;20030;-81
2022/06/14 06:08:38;;;;;;;9.07;1.58;;;12.90;92.20;;;;;;4993746;28;20026;-76
2022/06/14 06:11:09;;;;;;;10.27;2.13;;;12.90;92.10;;;;;;5004273;28;20038;-76
2022/06/14 06:13:44;;;;;;;11.23;1.92;;;13.00;92.00;;;;;;5015922;28;20026;-76
2022/06/14 06:16:35;;;;;;;9.02;1.40;;;13.10;92.00;;;;;;5017196;28;20088;-76
2022/06/14 06:19:25;;;;;;;7.20;1.30;;;13.00;91.90;;;;;;5004235;28;20076;-76
2022/06/14 06:21:59;;;;;;;7.50;1.10;;;13.10;91.90;;;;;;5011576;28;20031;-76
2022/06/14 06:24:47;;;;;;;4.88;1.20;;;13.10;91.90;;;;;;5017050;28;20390;-75
2022/06/14 06:27:13;;;;;;;9.77;1.70;;;13.20;91.80;;;;;;5013298;28;20044;-76
2022/06/14 06:30:04;;;;;;;5.07;1.17;;;13.30;91.80;;;;;;4998741;28;20487;-76
2022/06/14 06:32:31;;;;;;;11.18;1.33;;;13.30;91.70;;;;;;4997109;28;20109;-76
2022/06/14 06:35:00;;;;;;;8.50;0.77;;;13.40;91.60;;;;;;4995955;28;20475;-78
2022/06/14 06:37:41;;;;;;;7.15;1.10;;;13.40;91.50;;;;;;4995816;28;20069;-73
2022/06/14 06:40:21;;;;;;;5.70;1.02;;;13.50;91.30;;;;;;5012378;28;20030;-74
2022/06/14 06:42:56;;;;;;;4.03;0.85;;;13.60;91.20;;;;;;4997345;28;20031;-75
2022/06/14 06:45:28;;;;;;;6.78;1.10;;;13.60;91.10;;;;;;4996143;28;20029;-79
2022/06/14 06:48:04;;;;;;;5.35;0.73;;;13.70;91.00;;;;;;4995752;28;20080;-80
2022/06/14 06:50:33;;;;;;;6.00;0.70;;;13.70;90.90;;;;;;5012097;28;20030;-80
2022/06/14 06:53:01;;;;;;;2.80;0.50;;;13.80;90.70;;;;;;5011874;28;20022;-80
2022/06/14 06:55:33;;;;;;;5.07;0.70;;;13.80;90.50;;;;;;5011925;28;20386;-81
2022/06/14 06:58:01;;;;;;;6.63;0.90;;;13.90;90.10;;;;;;4996643;28;20054;-80
2022/06/14 07:00:28;;;;;;;3.20;0.60;;;14.00;89.70;;;;;;5012304;28;20037;-80
2022/06/14 07:02:59;;;;;;;5.55;0.80;;;14.00;89.90;;;;;;4996854;28;20081;-80
2022/06/14 07:05:25;;;;;;;5.95;0.68;;;14.00;88.80;;;;;;4995558;28;20022;-80
2022/06/14 07:07:57;;;;;;;3.95;0.52;;;14.10;88.50;;;;;;4995948;28;20041;-80
2022/06/14 07:10:36;;;;;;;4.82;1.02;;;14.20;88.10;;;;;;4995510;28;20065;-80
2022/06/14 07:13:18;;;;;;;5.95;1.00;;;14.20;87.50;;;;;;4996696;28;20471;-81
2022/06/14 07:15:54;;;;;;;6.25;0.75;;;14.30;86.80;;;;;;4995402;28;20038;-80
2022/06/14 07:18:37;;;;;;;5.28;0.70;;;14.40;86.40;;;;;;4996662;28;20390;-81
2022/06/14 07:21:23;;;;;;;7.32;0.98;;;14.40;85.80;;;;;;4994606;28;20023;-81
2022/06/14 07:24:08;;;;;;;2.10;0.40;;;14.50;85.30;;;;;;4996529;28;20022;-80
2022/06/14 07:26:37;;;;;;;4.25;0.60;;;14.60;84.80;;;;;;4995142;28;20057;-81
2022/06/14 07:29:06;;;;;;;4.07;0.65;;;14.60;84.10;;;;;;4996380;28;20116;-80
2022/06/14 07:31:44;;;;;;;3.70;0.55;;;14.70;83.20;;;;;;4996440;28;20027;-81
2022/06/14 07:34:11;;;;;;;7.15;0.70;;;14.80;82.80;;;;;;4995033;28;20023;-81
2022/06/14 07:36:55;;;;;;;6.30;0.82;;;14.80;82.50;;;;;;4994193;28;20150;-81
2022/06/14 07:39:39;;;;;;;4.32;0.50;;;14.90;82.40;;;;;;5030453;28;20037;-77
2022/06/14 07:42:18;;;;;;;4.10;0.55;;;14.90;82.10;;;;;;5016186;28;20021;-76
2022/06/14 07:45:05;;;;;;;6.70;1.02;;;15.00;82.60;;;;;;5015716;28;20029;-76
2022/06/14 07:47:42;;;;;;;4.93;0.70;;;15.10;81.90;;;;;;5030950;28;20024;-77
2022/06/14 07:50:16;;;;;;;4.43;0.70;;;15.10;82.20;;;;;;5014500;28;20022;-76
2022/06/14 07:52:49;;;;;;;6.07;0.65;;;15.30;81.30;;;;;;5031059;28;20014;-77
2022/06/14 07:55:18;;;;;;;5.90;0.80;;;15.30;80.80;;;;;;5014101;28;20371;-77
2022/06/14 07:57:46;;;;;;;4.22;0.70;;;15.50;80.70;;;;;;5015621;28;20053;-79
2022/06/14 08:03:18;;;;;;;6.50;0.88;;;15.70;80.40;;;;;;5015387;28;20045;-76
2022/06/14 08:05:47;;;;;;;3.65;0.50;;;15.90;80.40;;;;;;5013830;28;20053;-75
2022/06/14 08:08:18;;;;;;;2.90;0.43;;;16.00;79.90;;;;;;5014328;28;20478;-75
2022/06/14 08:10:49;;;;;;;2.85;0.50;;;16.20;79.30;;;;;;5013789;28;20489;-76
2022/06/14 08:13:21;;;;;;;3.42;0.50;;;16.30;78.80;;;;;;5013797;28;20037;-76
2022/06/14 08:15:49;;;;;;;3.38;0.50;;;16.40;78.30;;;;;;5014840;28;20463;-76
2022/06/14 08:18:45;;;;;;;3.65;0.60;;;16.60;77.70;;;;;;5013628;28;20494;-80
2022/06/14 08:21:27;;;;;;;1.98;0.60;;;16.70;76.70;;;;;;5013556;28;20022;-77
2022/06/14 08:24:05;;;;;;;5.90;0.77;;;16.70;76.20;;;;;;5015208;28;20022;-76
2022/06/14 08:26:47;;;;;;;5.70;0.75;;;16.80;76.00;;;;;;5014713;28;20512;-76
2022/06/14 08:29:13;;;;;;;3.83;0.50;;;16.80;75.80;;;;;;5030188;28;20057;-82
2022/06/14 08:31:57;;;;;;;3.25;0.70;;;17.00;75.60;;;;;;5013292;28;20088;-80
2022/06/14 08:34:23;;;;;;;;;;;17.00;74.80;;;;;;5013974;28;20041;-81
2022/06/14 08:36:57;;;;;;;3.63;0.50;;;17.10;74.50;;;;;;5013714;28;19905;-80
2022/06/14 08:39:31;;;;;;;5.18;0.63;;;17.20;74.60;;;;;;5013255;28;20474;-81
2022/06/14 08:42:09;;;;;;;2.88;0.50;;;17.30;74.20;;;;;;5009230;28;20033;-75
2022/06/14 08:44:41;;;;;;;14.65;0.98;;;17.40;73.60;;;;;;5014958;28;20057;-76
2022/06/14 08:47:28;;;;;;;5.25;0.77;;;17.50;73.40;;;;;;5013261;28;20068;-77
2022/06/14 08:49:57;;;;;;;3.33;0.60;;;17.60;72.80;;;;;;5007283;28;20032;-77
2022/06/14 08:52:44;;;;;;;4.00;0.60;;;17.70;72.30;;;;;;5013034;28;20022;-76
2022/06/14 08:55:24;;;;;;;4.00;0.70;;;17.90;71.50;;;;;;5014055;28;20029;-77
2022/06/14 08:58:14;;;;;;;7.75;0.63;;;18.00;71.00;;;;;;5012820;28;20070;-77
2022/06/14 09:00:55;;;;;;;4.45;0.73;;;18.10;70.30;;;;;;5013238;28;20104;-77
2022/06/14 09:03:32;;;;;;;3.42;0.70;;;18.10;69.80;;;;;;5013006;28;20030;-77
2022/06/14 09:06:09;;;;;;;4.80;0.73;;;18.20;69.60;;;;;;5014402;28;20034;-77
2022/06/14 09:08:53;;;;;;;3.35;0.50;;;18.20;69.10;;;;;;5012861;28;20620;-77
2022/06/14 09:12:00;;;;;;;8.98;0.85;;;18.30;68.90;;;;;;4993761;28;20023;-76
2022/06/14 09:14:57;;;;;;;6.30;0.75;;;18.40;68.60;;;;;;5003623;28;20033;-77
2022/06/14 09:17:51;;;;;;;4.88;0.90;;;18.50;68.20;;;;;;5007397;28;20439;-77
2022/06/14 09:20:44;;;;;;;5.72;0.80;;;18.60;66.40;;;;;;4993232;28;20512;-79
2022/06/14 09:23:39;;;;;;;3.40;0.55;;;18.60;66.00;;;;;;4993212;28;20053;-78
2022/06/14 09:26:26;;;;;;;3.47;0.50;;;18.70;65.70;;;;;;4992586;28;20035;-77
2022/06/14 09:29:04;;;;;;;3.60;0.57;;;18.80;65.70;;;;;;4996091;28;20076;-78
2022/06/14 09:32:02;;;;;;;3.95;0.60;;;18.90;65.60;;;;;;5009035;28;20025;-78
2022/06/14 09:34:27;;;;;;;4.22;0.55;;;19.10;65.50;;;;;;4989616;28;20046;-77
2022/06/14 09:37:14;;;;;;;2.13;0.50;;;19.20;65.40;;;;;;4992767;28;20033;-78
2022/06/14 09:40:12;;;;;;;5.38;0.60;;;19.40;65.10;;;;;;5012782;28;20037;-77
2022/06/14 09:43:27;;;;;;;2.40;0.55;;;19.50;64.70;;;;;;4995809;28;20058;-77
2022/06/14 09:46:17;;;;;;;4.13;0.80;;;19.70;63.70;;;;;;4990692;28;20043;-77
2022/06/14 09:49:15;;;;;;;2.08;0.60;;;19.90;63.40;;;;;;4994021;28;20022;-77
2022/06/14 09:52:10;;;;;;;2.63;0.50;;;20.00;62.40;;;;;;4990967;28;20031;-78
2022/06/14 09:54:36;;;;;;;3.60;0.60;;;20.20;62.50;;;;;;4988067;28;20034;-78
2022/06/14 09:57:37;;;;;;;5.15;0.65;;;20.30;61.50;;;;;;4992340;28;20490;-79
2022/06/14 10:00:14;;;;;;;9.40;0.93;;;20.30;61.00;;;;;;5005300;28;20133;-77
2022/06/14 10:03:03;;;;;;;2.20;0.45;;;20.40;60.70;;;;;;5006739;28;20045;-79
2022/06/14 10:05:58;;;;;;;3.58;0.73;;;20.40;60.10;;;;;;5003409;28;20493;-79
2022/06/14 10:08:55;;;;;;;3.72;0.77;;;20.40;59.70;;;;;;5026775;28;20049;-77
2022/06/14 10:11:27;;;;;;;2.60;0.60;;;20.50;59.60;;;;;;5000014;28;20034;-76
2022/06/14 10:14:11;;;;;;;2.70;0.50;;;20.60;59.40;;;;;;4992501;28;20054;-75
2022/06/14 10:17:11;;;;;;;3.90;0.60;;;20.60;58.80;;;;;;4992694;28;20022;-76
2022/06/14 10:20:17;;;;;;;2.65;0.55;;;20.50;58.80;;;;;;4992352;28;20036;-77
2022/06/14 10:22:51;;;;;;;3.85;0.73;;;20.50;58.40;;;;;;4994201;28;20033;-79
2022/06/14 10:28:40;;;;;;;3.90;0.53;;;20.30;58.40;;;;;;4993711;28;20096;-77
2022/06/14 10:31:43;;;;;;;2.70;0.65;;;20.50;58.30;;;;;;5012660;28;20278;-79
2022/06/14 10:34:28;;;;;;;3.42;0.65;;;20.70;58.00;;;;;;4992409;28;20364;-77
2022/06/14 10:37:03;;;;;;;2.67;0.47;;;20.90;57.80;;;;;;4992632;28;20041;-79
2022/06/14 10:39:44;;;;;;;3.97;0.75;;;21.10;57.70;;;;;;4992847;28;20117;-79
2022/06/14 10:42:20;;;;;;;3.03;0.70;;;21.30;58.00;;;;;;4992169;28;20394;-76
2022/06/14 10:44:49;;;;;;;3.42;0.50;;;21.60;57.80;;;;;;4993419;28;20026;-77
2022/06/14 10:47:33;;;;;;;3.63;0.60;;;21.90;56.70;;;;;;4992418;28;20026;-79
2022/06/14 10:50:23;;;;;;;2.83;0.60;;;22.30;55.90;;;;;;4993657;28;20030;-77
2022/06/14 10:53:21;;;;;;;2.42;0.40;;;22.50;54.50;;;;;;4992177;28;20512;-78
2022/06/14 10:56:07;;;;;;;2.75;0.80;;;22.60;54.50;;;;;;4995849;28;20029;-77
2022/06/14 10:58:54;;;;;;;4.65;0.52;;;22.60;54.80;;;;;;4996381;28;20046;-77
2022/06/14 11:01:37;;;;;;;3.35;0.60;;;22.70;55.00;;;;;;4996847;28;20097;-78
2022/06/14 11:04:18;;;;;;;2.45;0.40;;;22.70;55.00;;;;;;4995699;28;20027;-78
2022/06/14 11:07:14;;;;;;;2.05;0.47;;;22.80;55.10;;;;;;4995778;28;20508;-80
2022/06/14 11:09:57;;;;;;;3.63;0.40;;;23.00;54.80;;;;;;4996133;28;20033;-78
2022/06/14 11:12:46;;;;;;;3.13;0.40;;;23.10;54.60;;;;;;5001691;28;20057;-77
2022/06/14 11:15:18;;;;;;;1.55;0.40;;;23.20;54.10;;;;;;4996607;28;20057;-77
2022/06/14 11:18:07;;;;;;;4.05;0.55;;;23.40;54.10;;;;;;5011422;28;20482;-79
2022/06/14 11:21:08;;;;;;;3.13;0.40;;;23.50;53.70;;;;;;5011460;28;20625;-79
2022/06/14 11:23:59;;;;;;;1.50;0.50;;;23.80;53.10;;;;;;5011739;28;20173;-78
2022/06/14 11:26:41;;;;;;;3.95;0.38;;;24.10;52.70;;;;;;4994935;28;20072;-79
2022/06/14 11:29:29;;;;;;;3.00;0.43;;;24.30;52.30;;;;;;4996194;28;20037;-79
2022/06/14 11:32:04;;;;;;;3.00;0.47;;;24.50;52.10;;;;;;5011216;28;20089;-78
2022/06/14 11:34:45;;;;;;;3.47;0.50;;;24.60;51.70;;;;;;5014053;28;20026;-78
2022/06/14 11:37:41;;;;;;;16.45;0.93;;;24.60;51.30;;;;;;5012393;28;20026;-77
2022/06/14 11:40:26;;;;;;;3.97;0.50;;;24.70;50.70;;;;;;5014425;28;20049;-79
2022/06/14 11:43:21;;;;;;;3.05;0.70;;;24.70;50.70;;;;;;5014409;28;20022;-79
2022/06/14 11:45:59;;;;;;;3.42;0.52;;;24.60;50.70;;;;;;5014289;28;20034;-78
2022/06/14 11:48:53;;;;;;;3.88;0.50;;;24.70;51.10;;;;;;5015508;28;20014;-77
2022/06/14 11:51:45;;;;;;;1.75;0.50;;;24.80;50.50;;;;;;5010849;28;20058;-79
2022/06/14 11:54:19;;;;;;;5.22;0.60;;;25.10;49.80;;;;;;4996186;28;20106;-80
2022/06/14 11:57:03;;;;;;;3.35;0.45;;;25.20;49.70;;;;;;4996093;28;20077;-78
2022/06/14 11:59:55;;;;;;;3.50;0.50;;;25.30;49.40;;;;;;4994583;28;20501;-79
2022/06/14 12:02:36;;;;;;;2.88;0.40;;;25.60;49.00;;;;;;4994813;28;20054;-79
2022/06/14 12:05:23;;;;;;;7.05;0.70;;;25.80;48.90;;;;;;4994532;28;20109;-74
2022/06/14 12:08:27;;;;;;;3.28;0.60;;;26.00;48.30;;;;;;4995340;28;20035;-80
2022/06/14 12:11:12;;;;;;;3.35;0.50;;;26.30;47.40;;;;;;4986538;28;20039;-79
2022/06/14 12:13:38;;;;;;;2.60;0.50;;;26.50;47.20;;;;;;4994510;28;20131;-76
2022/06/14 12:16:16;;;;;;;3.28;0.50;;;26.70;47.10;;;;;;4994689;28;20181;-77
2022/06/14 12:19:06;;;;;;;4.55;0.70;;;26.80;46.30;;;;;;4994630;28;20081;-79
2022/06/14 12:21:42;;;;;;;5.53;0.70;;;27.00;46.30;;;;;;4993664;28;20034;-78
2022/06/14 12:24:16;;;;;;;2.90;0.50;;;27.00;46.00;;;;;;4994006;28;20034;-77
2022/06/14 12:26:57;;;;;;;1.70;0.40;;;27.00;45.90;;;;;;4994173;28;20034;-81
2022/06/14 12:29:34;;;;;;;2.45;0.40;;;27.20;46.00;;;;;;4994529;28;20018;-79
2022/06/14 12:32:19;;;;;;;1.85;0.30;;;27.50;46.30;;;;;;4998376;28;20018;-78
2022/06/14 12:34:49;;;;;;;2.95;0.55;;;27.70;45.20;;;;;;5013404;28;20418;-79
2022/06/14 12:37:41;;;;;;;3.42;0.63;;;27.80;45.60;;;;;;5013370;28;20029;-77
2022/06/14 12:40:13;;;;;;;3.47;0.55;;;28.10;45.60;;;;;;5011950;28;20030;-79
2022/06/14 12:43:11;;;;;;;3.72;0.55;;;28.40;45.60;;;;;;5022998;28;20030;-78
2022/06/14 12:46:04;;;;;;;1.92;0.40;;;28.60;44.80;;;;;;5009986;28;20065;-78
2022/06/14 12:48:55;;;;;;;4.75;0.60;;;28.80;44.80;;;;;;4993544;28;20427;-79
2022/06/14 12:51:26;;;;;;;3.10;0.63;;;29.00;44.40;;;;;;5004737;28;20042;-79
2022/06/14 12:54:06;;;;;;;3.92;0.63;;;29.20;44.40;;;;;;5010149;28;20478;-79
2022/06/14 12:56:53;;;;;;;3.28;0.75;;;29.40;43.80;;;;;;4993288;28;20030;-77
2022/06/14 12:59:46;;;;;;;3.33;0.60;;;29.30;43.90;;;;;;4992864;28;20121;-78
2022/06/14 13:02:40;;;;;;;1.65;0.32;;;29.20;43.50;;;;;;5009654;28;20030;-77
2022/06/14 13:05:09;;;;;;;3.03;0.30;;;29.40;43.20;;;;;;4994979;28;20022;-79
2022/06/14 13:07:34;;;;;;;2.20;0.40;;;29.50;43.50;;;;;;4993501;28;20031;-78
2022/06/14 13:10:41;;;;;;;3.03;0.60;;;29.70;43.40;;;;;;4994285;28;20037;-79
2022/06/14 13:13:15;;;;;;;5.00;0.50;;;29.90;42.30;;;;;;4992920;28;20109;-79
2022/06/14 13:15:50;;;;;;;2.40;0.50;;;30.10;42.40;;;;;;4995924;28;20022;-80
2022/06/14 13:18:43;;;;;;;3.25;0.80;;;30.20;42.00;;;;;;5009113;28;20022;-79
2022/06/14 13:21:38;;;;;;;3.80;0.50;;;30.40;41.90;;;;;;5009659;28;20026;-80
2022/06/14 13:24:25;;;;;;;2.67;0.60;;;30.60;41.70;;;;;;4996109;28;20474;-81
2022/06/14 13:27:20;;;;;;;3.05;0.70;;;30.60;41.80;;;;;;4993041;28;20434;-77
2022/06/14 13:30:28;;;;;;;4.50;0.52;;;30.40;41.50;;;;;;4994141;28;20470;-80
2022/06/14 13:33:11;;;;;;;6.75;0.90;;;30.10;41.50;;;;;;4992825;28;20028;-81
2022/06/14 13:35:45;;;;;;;3.00;0.55;;;29.80;41.50;;;;;;4992730;28;20030;-79
2022/06/14 13:38:14;;;;;;;;;;;29.60;41.30;;;;;;4994614;28;20026;-81
2022/06/14 13:40:51;;;;;;;3.75;0.80;;;29.40;41.40;;;;;;4992798;28;19906;-81
2022/06/14 13:43:26;;;;;;;4.93;0.70;;;29.30;41.90;;;;;;4993067;28;20026;-81
2022/06/14 13:46:22;;;;;;;2.83;0.52;;;29.40;41.80;;;;;;4994331;28;20037;-79
2022/06/14 13:49:01;;;;;;;2.50;0.47;;;29.70;41.90;;;;;;4994290;28;20033;-79
2022/06/14 13:52:05;;;;;;;4.13;0.65;;;30.00;41.90;;;;;;4994088;28;20025;-80
2022/06/14 13:54:37;;;;;;;2.58;0.43;;;30.40;41.10;;;;;;4988868;28;20026;-80
2022/06/14 13:57:33;;;;;;;3.33;0.75;;;30.70;41.30;;;;;;4992595;28;20125;-80
2022/06/14 14:00:25;;;;;;;3.47;0.50;;;30.90;41.00;;;;;;5012288;28;20046;-79